createdAt,value
2023-04-24T00:01:02.076Z,1.42
2023-04-24T00:03:29.166Z,1.08
2023-04-24T00:05:55.889Z,1.00
2023-04-24T00:08:23.597Z,1.00
2023-04-24T00:10:50.075Z,1.65
2023-04-24T00:13:16.502Z,1.38
2023-04-24T00:15:43.212Z,1.25
2023-04-24T00:18:10.494Z,1.60
2023-04-24T00:20:36.924Z,1.20
2023-04-24T00:23:03.608Z,1.20
2023-04-24T00:25:30.144Z,1.42
2023-04-24T00:27:56.550Z,1.65
2023-04-24T00:30:23.058Z,1.75
2023-04-24T00:32:49.753Z,1.90
2023-04-24T00:35:17.568Z,1.90
2023-04-24T00:37:44.285Z,1.90
2023-04-24T00:40:11.608Z,2.00
2023-04-24T00:42:38.099Z,2.08
2023-04-24T00:45:05.473Z,2.42
2023-04-24T00:47:34.145Z,2.33
2023-04-24T00:50:06.446Z,2.35
2023-04-24T00:52:33.643Z,2.30
2023-04-24T00:55:00.404Z,2.28
2023-04-24T00:57:27.764Z,2.30
2023-04-24T00:59:54.599Z,2.90
2023-04-24T01:02:23.427Z,3.08
2023-04-24T01:04:51.726Z,3.05
2023-04-24T01:07:21.716Z,3.33
2023-04-24T01:09:49.855Z,3.20
2023-04-24T01:12:16.548Z,3.50
2023-04-24T01:14:45.277Z,3.40
2023-04-24T01:17:11.896Z,3.97
2023-04-24T01:19:39.044Z,3.40
2023-04-24T01:22:12.646Z,3.85
2023-04-24T01:24:39.565Z,4.18
2023-04-24T01:27:06.209Z,4.57
2023-04-24T01:29:32.928Z,4.50
2023-04-24T01:31:59.602Z,4.75
2023-04-24T01:34:26.747Z,4.68
2023-04-24T01:36:53.307Z,4.60
2023-04-24T01:39:21.423Z,4.90
2023-04-24T01:41:47.859Z,5.22
2023-04-24T01:44:15.150Z,4.57
2023-04-24T01:46:42.070Z,4.72
2023-04-24T01:49:08.687Z,5.57
2023-04-24T01:51:35.270Z,4.78
2023-04-24T01:54:03.614Z,4.30
2023-04-24T01:56:31.262Z,4.75
2023-04-24T01:58:58.560Z,5.22
2023-04-24T02:01:25.850Z,5.30
2023-04-24T02:03:52.488Z,5.53
2023-04-24T02:06:18.985Z,4.97
2023-04-24T02:08:45.374Z,5.88
2023-04-24T02:11:11.848Z,5.38
2023-04-24T02:13:38.389Z,6.25
2023-04-24T02:16:05.496Z,6.03
2023-04-24T02:18:32.055Z,6.97
2023-04-24T02:20:58.431Z,7.15
2023-04-24T02:23:24.999Z,7.20
2023-04-24T02:25:51.400Z,6.88
2023-04-24T02:28:17.905Z,7.05
2023-04-24T02:30:44.351Z,7.40
2023-04-24T02:33:10.908Z,7.53
2023-04-24T02:35:37.343Z,7.97
2023-04-24T02:38:04.342Z,7.80
2023-04-24T02:40:31.097Z,7.78
2023-04-24T02:42:57.491Z,7.68
2023-04-24T02:45:24.439Z,9.20
2023-04-24T02:47:51.482Z,9.50
2023-04-24T02:50:17.977Z,8.73
2023-04-24T02:52:44.793Z,8.63
2023-04-24T02:55:11.450Z,9.68
2023-04-24T02:57:37.912Z,9.60
2023-04-24T03:00:07.939Z,10.65
2023-04-24T03:02:35.051Z,9.98
2023-04-24T03:05:03.184Z,10.18
2023-04-24T03:07:29.747Z,9.85
2023-04-24T03:09:56.708Z,10.23
2023-04-24T03:12:24.686Z,9.57
2023-04-24T03:14:51.095Z,10.15
2023-04-24T03:17:19.375Z,10.30
2023-04-24T03:19:46.052Z,11.05
2023-04-24T03:22:13.526Z,10.50
2023-04-24T03:24:41.360Z,10.63
2023-04-24T03:27:08.195Z,10.50
2023-04-24T03:30:04.763Z,10.93
2023-04-24T03:32:43.027Z,10.45
2023-04-24T03:35:12.899Z,11.07
2023-04-24T03:37:39.611Z,10.93
2023-04-24T03:40:30.425Z,9.77
2023-04-24T03:42:58.024Z,10.57
2023-04-24T03:45:25.208Z,10.32
2023-04-24T03:47:52.429Z,10.27
2023-04-24T03:50:19.420Z,10.32
2023-04-24T03:52:46.200Z,9.98
2023-04-24T03:55:21.288Z,9.88
2023-04-24T03:57:48.637Z,10.70
2023-04-24T04:00:22.011Z,10.27
2023-04-24T04:02:56.315Z,10.23
2023-04-24T04:05:23.283Z,10.25
2023-04-24T04:07:50.047Z,10.45
2023-04-24T04:10:18.065Z,9.82
2023-04-24T04:12:44.543Z,9.43
2023-04-24T04:15:11.213Z,10.27
2023-04-24T04:17:38.902Z,9.38
2023-04-24T04:20:10.872Z,9.30
2023-04-24T04:22:38.807Z,9.32
2023-04-24T04:25:09.304Z,9.32
2023-04-24T04:27:37.201Z,9.02
2023-04-24T04:30:10.596Z,9.07
2023-04-24T04:32:46.473Z,9.00
2023-04-24T04:35:14.292Z,8.68
2023-04-24T04:37:41.572Z,8.68
2023-04-24T04:40:16.612Z,8.85
2023-04-24T04:42:54.866Z,9.00
2023-04-24T04:45:22.520Z,7.95
2023-04-24T04:48:19.554Z,8.20
2023-04-24T04:50:46.496Z,8.55
2023-04-24T04:53:13.986Z,8.43
2023-04-24T04:55:42.221Z,8.40
2023-04-24T04:58:14.606Z,7.80
2023-04-24T05:00:42.382Z,7.60
2023-04-24T05:03:29.244Z,7.25
2023-04-24T05:06:01.397Z,7.25
2023-04-24T05:08:29.489Z,8.60
2023-04-24T05:10:56.505Z,7.40
2023-04-24T05:15:54.264Z,6.95
2023-04-24T05:18:20.876Z,6.93
2023-04-24T05:20:47.916Z,6.75
2023-04-24T05:23:14.448Z,6.70
2023-04-24T05:25:44.049Z,7.07
2023-04-24T05:28:12.878Z,7.20
2023-04-24T05:30:39.655Z,7.32
2023-04-24T05:33:07.345Z,7.72
2023-04-24T05:35:35.627Z,8.60
2023-04-24T05:38:02.407Z,7.45
2023-04-24T05:40:29.043Z,8.40
2023-04-24T05:42:55.996Z,8.38
2023-04-24T05:45:25.164Z,7.40
2023-04-24T05:47:53.507Z,7.35
2023-04-24T05:50:20.193Z,7.70
2023-04-24T05:52:47.371Z,7.85
2023-04-24T05:55:26.161Z,8.15
2023-04-24T05:57:53.554Z,8.88
2023-04-24T06:00:21.058Z,8.23
2023-04-24T06:02:56.580Z,8.27
2023-04-24T06:05:23.330Z,8.65
2023-04-24T06:07:53.228Z,8.35
2023-04-24T06:10:24.653Z,8.18
2023-04-24T06:12:52.451Z,8.10
2023-04-24T06:15:19.509Z,8.52
2023-04-24T06:17:52.255Z,8.52
2023-04-24T06:20:20.498Z,8.50
2023-04-24T06:22:47.062Z,8.80
2023-04-24T06:25:13.474Z,8.35
2023-04-24T06:27:39.861Z,7.60
2023-04-24T06:30:08.962Z,7.60
2023-04-24T06:32:35.593Z,7.22
2023-04-24T06:35:02.620Z,7.22
2023-04-24T06:37:29.244Z,6.28
2023-04-24T06:39:55.598Z,5.97
2023-04-24T06:42:22.874Z,5.88
2023-04-24T06:44:50.408Z,6.07
2023-04-24T06:47:17.584Z,5.57
2023-04-24T06:49:44.336Z,5.28
2023-04-24T06:52:11.065Z,5.03
2023-04-24T06:54:37.465Z,5.25
2023-04-24T06:57:04.030Z,5.07
2023-04-24T06:59:31.331Z,4.65
2023-04-24T07:01:58.468Z,4.57
2023-04-24T07:04:26.270Z,5.22
2023-04-24T07:06:55.318Z,4.53
2023-04-24T07:09:21.706Z,2.78
2023-04-24T07:11:48.245Z,1.95
2023-04-24T07:14:14.904Z,2.10
2023-04-24T07:16:41.652Z,2.00
2023-04-24T07:19:08.174Z,1.90
2023-04-24T07:21:34.648Z,1.45
2023-04-24T07:24:01.530Z,1.10
2023-04-24T07:26:30.477Z,1.30
2023-04-24T07:28:57.170Z,1.00
2023-04-24T07:31:23.627Z,1.38
2023-04-24T07:33:50.072Z,1.30
2023-04-24T07:36:19.720Z,1.17
2023-04-24T07:38:47.133Z,1.30
2023-04-24T07:41:14.919Z,1.13
2023-04-24T07:43:41.879Z,1.10
2023-04-24T07:46:09.324Z,0.95
2023-04-24T07:48:35.975Z,0.93
2023-04-24T07:51:02.980Z,1.27
2023-04-24T07:53:29.398Z,1.08
2023-04-24T07:55:57.108Z,1.15
2023-04-24T07:58:23.579Z,0.95
2023-04-24T08:00:50.044Z,1.17
2023-04-24T08:03:19.319Z,1.13
2023-04-24T08:05:45.949Z,1.00
2023-04-24T08:08:12.442Z,1.27
2023-04-24T08:10:39.443Z,1.15
2023-04-24T08:13:05.897Z,1.25
2023-04-24T08:15:32.305Z,1.27
2023-04-24T08:17:59.205Z,1.33
2023-04-24T08:20:25.980Z,1.17
2023-04-24T08:22:52.368Z,1.45
2023-04-24T08:25:20.070Z,1.40
2023-04-24T08:27:46.543Z,1.10
2023-04-24T08:30:13.127Z,1.40
2023-04-24T08:32:40.496Z,1.00
2023-04-24T08:35:09.540Z,1.02
2023-04-24T08:37:36.927Z,1.10
2023-04-24T08:40:07.955Z,1.10
2023-04-24T08:42:36.619Z,1.27
2023-04-24T08:45:03.552Z,1.05
2023-04-24T08:47:31.148Z,1.25
2023-04-24T08:49:58.329Z,1.40
2023-04-24T08:52:26.688Z,1.25
2023-04-24T08:54:54.592Z,2.35
2023-04-24T08:57:20.981Z,5.38
2023-04-24T08:59:48.214Z,6.93
2023-04-24T09:02:15.896Z,7.68
2023-04-24T09:04:44.448Z,8.40
2023-04-24T09:07:12.711Z,8.82
2023-04-24T09:09:39.772Z,9.23
2023-04-24T09:12:06.903Z,8.00
2023-04-24T09:14:34.021Z,8.13
2023-04-24T09:17:00.471Z,8.25
2023-04-24T09:19:27.358Z,6.63
2023-04-24T09:21:53.814Z,7.00
2023-04-24T09:24:23.582Z,6.90
2023-04-24T09:26:58.649Z,7.10
2023-04-24T09:29:25.805Z,7.47
2023-04-24T09:31:52.357Z,7.75
2023-04-24T09:34:24.667Z,8.52
2023-04-24T09:36:51.867Z,8.25
2023-04-24T09:39:21.008Z,7.75
2023-04-24T09:41:48.828Z,7.57
2023-04-24T09:44:23.743Z,7.65
2023-04-24T09:46:54.160Z,8.55
2023-04-24T09:49:25.926Z,9.30
2023-04-24T09:51:53.044Z,8.73
2023-04-24T09:54:22.330Z,9.70
2023-04-24T09:56:51.539Z,9.05
2023-04-24T09:59:19.700Z,8.18
2023-04-24T10:01:46.611Z,7.97
2023-04-24T10:04:21.652Z,8.05
2023-04-24T10:06:50.001Z,7.30
2023-04-24T10:09:17.798Z,7.18
2023-04-24T10:11:46.893Z,6.47
2023-04-24T10:14:15.789Z,6.60
2023-04-24T10:16:43.268Z,6.72
2023-04-24T10:19:10.767Z,7.10
2023-04-24T10:21:43.347Z,7.10
2023-04-24T10:24:10.048Z,8.00
2023-04-24T10:26:37.532Z,6.15
2023-04-24T10:29:07.323Z,7.28
2023-04-24T10:31:34.280Z,7.05
2023-04-24T10:34:02.114Z,5.95
2023-04-24T10:36:33.227Z,5.20
2023-04-24T10:39:01.903Z,6.05
2023-04-24T10:41:28.340Z,5.63
2023-04-24T10:44:16.629Z,6.13
2023-04-24T10:46:49.164Z,4.97
2023-04-24T10:49:15.684Z,5.73
2023-04-24T10:51:51.731Z,6.22
2023-04-24T10:54:51.465Z,5.65
2023-04-24T10:57:24.018Z,6.13
2023-04-24T10:59:52.769Z,6.45
2023-04-24T11:02:19.468Z,6.32
2023-04-24T11:04:46.580Z,6.13
2023-04-24T11:07:13.637Z,6.32
2023-04-24T11:09:43.706Z,6.93
2023-04-24T11:12:12.054Z,7.32
2023-04-24T11:14:59.272Z,5.65
2023-04-24T11:17:34.133Z,5.65
2023-04-24T11:20:25.741Z,4.70
2023-04-24T11:22:58.691Z,4.75
2023-04-24T11:25:25.894Z,4.70
2023-04-24T11:28:04.722Z,4.97
2023-04-24T11:30:32.252Z,6.07
2023-04-24T11:33:04.540Z,3.78
2023-04-24T11:35:36.760Z,5.80
2023-04-24T11:38:22.781Z,4.43
2023-04-24T11:40:50.636Z,6.18
2023-04-24T11:43:19.729Z,5.10
2023-04-24T11:45:49.808Z,5.53
2023-04-24T11:48:22.584Z,5.47
2023-04-24T11:50:51.159Z,4.15
2023-04-24T11:53:21.401Z,4.18
2023-04-24T11:55:47.985Z,4.35
2023-04-24T11:58:14.378Z,4.10
2023-04-24T12:00:40.856Z,3.85
2023-04-24T12:03:09.934Z,4.25
2023-04-24T12:05:37.266Z,3.47
2023-04-24T12:08:03.936Z,3.30
2023-04-24T12:10:31.730Z,3.15
2023-04-24T12:12:59.470Z,3.00
2023-04-24T12:15:26.512Z,3.17
2023-04-24T12:17:54.815Z,2.83
2023-04-24T12:20:33.130Z,2.83
2023-04-24T12:23:01.247Z,2.30
2023-04-24T12:25:33.784Z,2.17
2023-04-24T12:28:06.585Z,2.58
2023-04-24T12:30:40.980Z,2.15
2023-04-24T12:33:07.907Z,1.80
2023-04-24T12:35:36.413Z,1.77
2023-04-24T12:38:10.889Z,1.67
2023-04-24T12:40:37.329Z,1.65
2023-04-24T12:43:17.730Z,2.03
2023-04-24T12:45:45.703Z,2.00
2023-04-24T12:48:12.638Z,1.77
2023-04-24T12:50:39.511Z,1.55
2023-04-24T12:53:07.654Z,1.40
2023-04-24T12:55:34.017Z,1.17
2023-04-24T12:58:00.633Z,1.10
2023-04-24T13:00:27.120Z,1.15
2023-04-24T13:02:53.940Z,1.23
2023-04-24T13:05:23.527Z,1.30
2023-04-24T13:07:51.665Z,1.50
2023-04-24T13:10:18.144Z,1.00
2023-04-24T13:12:46.942Z,1.02
2023-04-24T13:15:14.206Z,1.15
2023-04-24T13:17:40.997Z,0.88
2023-04-24T13:20:07.990Z,1.30
2023-04-24T13:22:34.377Z,1.30
2023-04-24T13:25:02.185Z,1.23
2023-04-24T13:27:28.768Z,1.10
2023-04-24T13:29:55.124Z,1.08
2023-04-24T13:32:21.677Z,1.10
2023-04-24T13:34:48.284Z,1.10
2023-04-24T13:37:14.904Z,1.40
2023-04-24T13:39:42.271Z,1.42
2023-04-24T13:42:09.448Z,1.33
2023-04-24T13:44:36.387Z,1.10
2023-04-24T13:47:02.917Z,1.65
2023-04-24T13:49:29.566Z,1.73
2023-04-24T13:51:57.012Z,1.58
2023-04-24T13:54:26.483Z,1.80
2023-04-24T13:56:53.750Z,2.53
2023-04-24T13:59:23.133Z,2.05
2023-04-24T14:01:49.993Z,1.23
2023-04-24T14:04:16.777Z,1.42
2023-04-24T14:06:43.880Z,1.10
2023-04-24T14:09:10.484Z,1.13
2023-04-24T14:11:37.032Z,1.10
2023-04-24T14:14:03.881Z,1.15
2023-04-24T14:16:31.477Z,1.23
2023-04-24T14:18:58.104Z,1.50
2023-04-24T14:21:24.488Z,1.10
2023-04-24T14:23:51.791Z,1.00
2023-04-24T14:26:18.524Z,1.10
2023-04-24T14:28:44.923Z,1.20
2023-04-24T14:31:12.371Z,1.30
2023-04-24T14:33:38.774Z,1.35
2023-04-24T14:36:06.472Z,1.80
2023-04-24T14:38:32.976Z,1.77
2023-04-24T14:41:07.302Z,1.85
2023-04-24T14:43:36.029Z,2.28
2023-04-24T14:46:03.116Z,1.70
2023-04-24T14:48:29.527Z,1.70
2023-04-24T14:50:55.943Z,1.70
2023-04-24T14:53:22.418Z,1.90
2023-04-24T14:55:48.900Z,1.80
2023-04-24T14:58:15.406Z,1.48
2023-04-24T15:00:41.832Z,1.52
2023-04-24T15:03:08.458Z,1.63
2023-04-24T15:05:35.689Z,1.23
2023-04-24T15:08:02.661Z,1.30
2023-04-24T15:10:30.547Z,1.58
2023-04-24T15:12:57.074Z,2.00
2023-04-24T15:15:23.626Z,1.48
2023-04-24T15:17:50.125Z,1.13
2023-04-24T15:20:16.702Z,1.77
2023-04-24T15:22:43.249Z,1.48
2023-04-24T15:25:11.006Z,1.70
2023-04-24T15:27:44.220Z,1.05
2023-04-24T15:30:11.520Z,1.40
2023-04-24T15:32:39.732Z,1.77
2023-04-24T15:35:09.613Z,2.85
2023-04-24T15:37:37.981Z,2.40
2023-04-24T15:40:06.344Z,1.42
2023-04-24T15:42:34.042Z,1.15
2023-04-24T15:45:00.596Z,1.17
2023-04-24T15:47:27.298Z,1.50
2023-04-24T15:49:54.477Z,1.35
2023-04-24T15:52:21.866Z,1.90
2023-04-24T15:54:48.615Z,1.90
2023-04-24T15:57:15.387Z,2.05
2023-04-24T15:59:42.129Z,2.10
2023-04-24T16:02:19.070Z,1.20
2023-04-24T16:04:47.758Z,1.08
2023-04-24T16:07:15.766Z,1.02
2023-04-24T16:09:42.618Z,1.23
2023-04-24T16:12:10.170Z,1.13
2023-04-24T16:14:37.792Z,1.00
2023-04-24T16:17:04.902Z,1.25
2023-04-24T16:19:33.738Z,1.48
2023-04-24T16:22:00.172Z,1.17
2023-04-24T16:24:26.930Z,2.38
2023-04-24T16:26:56.221Z,2.30
2023-04-24T16:29:22.725Z,1.40
2023-04-24T16:31:49.202Z,1.70
2023-04-24T16:34:15.641Z,1.70
2023-04-24T16:36:42.828Z,1.40
2023-04-24T16:39:09.761Z,1.13
2023-04-24T16:41:36.205Z,1.30
2023-04-24T16:44:02.610Z,1.02
2023-04-24T16:46:29.041Z,1.27
2023-04-24T16:48:55.547Z,1.08
2023-04-24T16:51:21.933Z,1.02
2023-04-24T16:53:48.764Z,1.10
2023-04-24T16:56:15.668Z,1.40
2023-04-24T16:58:42.048Z,1.00
2023-04-24T17:01:08.785Z,1.38
2023-04-24T17:03:35.328Z,1.33
2023-04-24T17:06:02.037Z,1.92
2023-04-24T17:08:29.710Z,2.83
2023-04-24T17:10:56.317Z,2.22
2023-04-24T17:13:22.753Z,2.05
2023-04-24T17:15:49.178Z,2.30
2023-04-24T17:18:15.777Z,1.52
2023-04-24T17:20:42.270Z,2.03
2023-04-24T17:23:11.788Z,1.80
2023-04-24T17:25:38.472Z,1.70
2023-04-24T17:28:31.325Z,1.60
2023-04-24T17:30:58.629Z,1.90
2023-04-24T17:33:30.531Z,2.30
2023-04-24T17:36:01.865Z,2.13
2023-04-24T17:38:31.627Z,2.58
2023-04-24T17:40:58.359Z,2.45
2023-04-24T17:43:24.870Z,3.30
2023-04-24T17:45:53.145Z,3.00
2023-04-24T17:48:19.903Z,2.20
2023-04-24T17:50:46.355Z,2.33
2023-04-24T17:53:13.521Z,2.08
2023-04-24T17:55:40.431Z,2.70
2023-04-24T17:58:06.818Z,4.95
2023-04-24T18:00:34.160Z,2.40
2023-04-24T18:03:01.615Z,2.92
2023-04-24T18:05:31.673Z,2.70
2023-04-24T18:07:58.927Z,2.60
2023-04-24T18:10:26.510Z,2.85
2023-04-24T18:12:53.105Z,2.78
2023-04-24T18:15:20.720Z,2.40
2023-04-24T18:17:47.531Z,2.53
2023-04-24T18:20:15.938Z,2.58
2023-04-24T18:22:42.791Z,2.63
2023-04-24T18:25:09.949Z,2.15
2023-04-24T18:27:37.206Z,3.42
2023-04-24T18:30:05.215Z,3.17
2023-04-24T18:32:31.779Z,2.97
2023-04-24T18:34:58.311Z,4.00
2023-04-24T18:37:24.967Z,3.15
2023-04-24T18:39:51.453Z,3.13
2023-04-24T18:42:18.511Z,3.50
2023-04-24T18:44:45.112Z,3.30
2023-04-24T18:47:11.569Z,3.40
2023-04-24T18:49:38.121Z,3.05
2023-04-24T18:52:04.974Z,3.15
2023-04-24T18:54:31.858Z,2.90
2023-04-24T18:56:58.298Z,3.10
2023-04-24T18:59:24.657Z,2.50
2023-04-24T19:01:51.545Z,2.90
2023-04-24T19:04:20.531Z,3.85
2023-04-24T19:06:47.217Z,4.50
2023-04-24T19:09:13.881Z,4.72
2023-04-24T19:11:42.113Z,4.90
2023-04-24T19:14:08.566Z,4.22
2023-04-24T19:16:35.207Z,3.80
2023-04-24T19:19:03.667Z,3.33
2023-04-24T19:21:32.002Z,3.92
2023-04-24T19:23:58.683Z,4.30
2023-04-24T19:26:26.588Z,3.47
2023-04-24T19:28:53.545Z,4.18
2023-04-24T19:31:19.972Z,3.97
2023-04-24T19:33:48.325Z,3.10
2023-04-24T19:36:17.565Z,3.47
2023-04-24T19:38:45.158Z,6.15
2023-04-24T19:41:12.391Z,11.73
2023-04-24T19:43:41.813Z,4.57
2023-04-24T19:46:08.677Z,4.50
2023-04-24T19:48:35.220Z,4.15
2023-04-24T19:51:02.740Z,3.60
2023-04-24T19:53:30.217Z,3.75
2023-04-24T19:55:56.917Z,4.05
2023-04-24T19:58:23.439Z,3.80
2023-04-24T20:00:49.984Z,3.97
2023-04-24T20:03:31.299Z,4.07
2023-04-24T20:05:59.571Z,4.22
2023-04-24T20:08:26.059Z,3.70
2023-04-24T20:10:54.168Z,4.32
2023-04-24T20:13:20.815Z,4.45
2023-04-24T20:15:47.675Z,4.70
2023-04-24T20:18:14.076Z,4.78
2023-04-24T20:20:41.451Z,4.40
2023-04-24T20:23:08.036Z,4.60
2023-04-24T20:25:35.640Z,4.75
2023-04-24T20:28:02.108Z,4.55
2023-04-24T20:30:28.603Z,4.68
2023-04-24T20:32:55.282Z,4.15
2023-04-24T20:35:21.709Z,4.68
2023-04-24T20:37:48.455Z,4.20
2023-04-24T20:40:14.845Z,4.22
2023-04-24T20:42:41.627Z,4.40
2023-04-24T20:45:08.544Z,4.43
2023-04-24T20:47:35.660Z,4.63
2023-04-24T20:50:03.946Z,4.38
2023-04-24T20:52:30.447Z,5.00
2023-04-24T20:54:56.974Z,4.28
2023-04-24T20:57:23.480Z,4.75
2023-04-24T20:59:49.911Z,4.80
2023-04-24T21:02:16.515Z,5.13
2023-04-24T21:04:43.037Z,4.70
2023-04-24T21:07:10.221Z,5.05
2023-04-24T21:09:36.615Z,5.50
2023-04-24T21:12:03.232Z,5.35
2023-04-24T21:14:29.630Z,5.00
2023-04-24T21:16:58.180Z,4.90
2023-04-24T21:19:24.690Z,4.78
2023-04-24T21:21:51.099Z,4.78
2023-04-24T21:24:17.930Z,4.57
2023-04-24T21:26:44.753Z,5.00
2023-04-24T21:29:11.380Z,4.78
2023-04-24T21:31:38.152Z,5.30
2023-04-24T21:34:04.581Z,5.00
2023-04-24T21:36:32.706Z,5.55
2023-04-24T21:38:59.505Z,5.03
2023-04-24T21:41:26.187Z,5.93
2023-04-24T21:43:53.131Z,5.28
2023-04-24T21:46:20.291Z,4.72
2023-04-24T21:48:46.793Z,5.50
2023-04-24T21:51:13.231Z,5.75
2023-04-24T21:53:39.884Z,5.80
2023-04-24T21:56:06.459Z,5.20
2023-04-24T21:58:33.016Z,5.70
2023-04-24T22:00:59.525Z,6.25
2023-04-24T22:03:26.111Z,5.47
2023-04-24T22:05:52.667Z,4.97
2023-04-24T22:08:19.047Z,6.13
2023-04-24T22:10:45.925Z,5.82
2023-04-24T22:13:12.343Z,5.55
2023-04-24T22:15:38.828Z,5.88
2023-04-24T22:18:06.558Z,6.15
2023-04-24T22:20:35.720Z,5.50
2023-04-24T22:23:02.138Z,6.03
2023-04-24T22:25:28.552Z,5.75
2023-04-24T22:27:55.010Z,6.57
2023-04-24T22:30:21.474Z,6.70
2023-04-24T22:32:48.182Z,6.07
2023-04-24T22:35:14.815Z,6.28
2023-04-24T22:37:41.208Z,6.03
2023-04-24T22:40:08.371Z,6.38
2023-04-24T22:42:35.238Z,6.22
2023-04-24T22:45:02.063Z,5.85
2023-04-24T22:47:28.995Z,5.70
2023-04-24T22:49:57.445Z,5.57
2023-04-24T22:52:23.916Z,6.80
2023-04-24T22:54:50.429Z,6.32
2023-04-24T22:57:17.133Z,6.05
2023-04-24T22:59:44.067Z,6.22
2023-04-24T23:02:11.050Z,6.00
2023-04-24T23:04:37.508Z,5.75
2023-04-24T23:07:03.980Z,5.95
2023-04-24T23:09:30.531Z,6.45
2023-04-24T23:11:57.905Z,6.07
2023-04-24T23:14:24.693Z,6.57
2023-04-24T23:16:51.277Z,5.88
2023-04-24T23:19:17.857Z,7.03
2023-04-24T23:21:44.272Z,6.22
2023-04-24T23:24:11.057Z,6.88
2023-04-24T23:26:38.028Z,6.18
2023-04-24T23:29:04.423Z,6.45
2023-04-24T23:31:30.903Z,6.75
2023-04-24T23:33:59.830Z,6.63
2023-04-24T23:36:26.823Z,6.38
2023-04-24T23:38:53.247Z,6.25
2023-04-24T23:41:19.845Z,5.50
2023-04-24T23:43:46.410Z,5.63
2023-04-24T23:46:13.677Z,5.90
2023-04-24T23:48:40.554Z,6.00
2023-04-24T23:51:07.157Z,6.05
2023-04-24T23:53:33.593Z,6.68
2023-04-24T23:56:00.380Z,5.75
2023-04-24T23:58:26.782Z,5.75
